sensor_id;sensor_type;location;lat;lon;timestamp;P1;durP1;ratioP1;P2;durP2;ratioP2
20179;SDS011;10249;48.900;9.090;2022-07-18T00:00:52;14.70;;;14.10;;
20179;SDS011;10249;48.900;9.090;2022-07-18T00:03:19;15.10;;;14.40;;
20179;SDS011;10249;48.900;9.090;2022-07-18T00:05:46;15.00;;;14.30;;
20179;SDS011;10249;48.900;9.090;2022-07-18T00:08:13;15.30;;;14.60;;
20179;SDS011;10249;48.900;9.090;2022-07-18T00:10:41;14.40;;;13.80;;
20179;SDS011;10249;48.900;9.090;2022-07-18T00:13:08;14.00;;;13.40;;
20179;SDS011;10249;48.900;9.090;2022-07-18T00:15:36;13.87;;;13.27;;
20179;SDS011;10249;48.900;9.090;2022-07-18T00:18:03;13.90;;;13.30;;
20179;SDS011;10249;48.900;9.090;2022-07-18T00:20:30;13.90;;;13.30;;
20179;SDS011;10249;48.900;9.090;2022-07-18T00:22:57;13.73;;;13.13;;
20179;SDS011;10249;48.900;9.090;2022-07-18T00:25:24;14.00;;;13.40;;
20179;SDS011;10249;48.900;9.090;2022-07-18T00:27:53;13.90;;;13.30;;
20179;SDS011;10249;48.900;9.090;2022-07-18T00:30:20;13.93;;;13.33;;
20179;SDS011;10249;48.900;9.090;2022-07-18T00:32:47;13.80;;;13.20;;
20179;SDS011;10249;48.900;9.090;2022-07-18T00:35:14;13.60;;;13.00;;
20179;SDS011;10249;48.900;9.090;2022-07-18T00:37:41;13.70;;;13.10;;
20179;SDS011;10249;48.900;9.090;2022-07-18T00:40:09;13.80;;;13.20;;
20179;SDS011;10249;48.900;9.090;2022-07-18T00:42:36;14.00;;;13.40;;
20179;SDS011;10249;48.900;9.090;2022-07-18T00:45:05;14.33;;;13.73;;
20179;SDS011;10249;48.900;9.090;2022-07-18T00:47:32;14.23;;;13.63;;
20179;SDS011;10249;48.900;9.090;2022-07-18T00:49:59;14.50;;;13.90;;
20179;SDS011;10249;48.900;9.090;2022-07-18T00:52:28;14.50;;;13.90;;
20179;SDS011;10249;48.900;9.090;2022-07-18T00:54:55;14.30;;;13.70;;
20179;SDS011;10249;48.900;9.090;2022-07-18T00:57:22;14.40;;;13.80;;
20179;SDS011;10249;48.900;9.090;2022-07-18T00:59:50;14.30;;;13.70;;
20179;SDS011;10249;48.900;9.090;2022-07-18T01:02:36;14.30;;;13.70;;
20179;SDS011;10249;48.900;9.090;2022-07-18T01:05:05;14.20;;;13.60;;
20179;SDS011;10249;48.900;9.090;2022-07-18T01:07:32;14.20;;;13.60;;
20179;SDS011;10249;48.900;9.090;2022-07-18T01:09:59;14.10;;;13.50;;
20179;SDS011;10249;48.900;9.090;2022-07-18T01:12:26;13.93;;;13.33;;
20179;SDS011;10249;48.900;9.090;2022-07-18T01:14:53;13.83;;;13.23;;
20179;SDS011;10249;48.900;9.090;2022-07-18T01:17:23;13.73;;;13.13;;
20179;SDS011;10249;48.900;9.090;2022-07-18T01:19:51;13.40;;;12.90;;
20179;SDS011;10249;48.900;9.090;2022-07-18T01:22:20;13.07;;;12.57;;
20179;SDS011;10249;48.900;9.090;2022-07-18T01:24:47;13.30;;;12.80;;
20179;SDS011;10249;48.900;9.090;2022-07-18T01:27:14;12.97;;;12.47;;
20179;SDS011;10249;48.900;9.090;2022-07-18T01:29:42;13.20;;;12.70;;
20179;SDS011;10249;48.900;9.090;2022-07-18T01:32:09;13.10;;;12.60;;
20179;SDS011;10249;48.900;9.090;2022-07-18T01:34:36;13.00;;;12.50;;
20179;SDS011;10249;48.900;9.090;2022-07-18T01:37:04;13.30;;;12.80;;
20179;SDS011;10249;48.900;9.090;2022-07-18T01:39:33;13.43;;;12.90;;
20179;SDS011;10249;48.900;9.090;2022-07-18T01:42:00;13.20;;;12.70;;
20179;SDS011;10249;48.900;9.090;2022-07-18T01:44:28;13.20;;;12.70;;
20179;SDS011;10249;48.900;9.090;2022-07-18T01:46:55;13.20;;;12.70;;
20179;SDS011;10249;48.900;9.090;2022-07-18T01:49:22;15.20;;;14.60;;
20179;SDS011;10249;48.900;9.090;2022-07-18T01:51:50;13.40;;;12.90;;
20179;SDS011;10249;48.900;9.090;2022-07-18T01:54:19;13.30;;;12.80;;
20179;SDS011;10249;48.900;9.090;2022-07-18T01:56:47;13.23;;;12.73;;
20179;SDS011;10249;48.900;9.090;2022-07-18T01:59:14;13.23;;;12.73;;
20179;SDS011;10249;48.900;9.090;2022-07-18T02:01:41;13.20;;;12.70;;
20179;SDS011;10249;48.900;9.090;2022-07-18T02:04:08;13.30;;;12.80;;
20179;SDS011;10249;48.900;9.090;2022-07-18T02:06:35;13.30;;;12.80;;
20179;SDS011;10249;48.900;9.090;2022-07-18T02:09:03;13.27;;;12.77;;
20179;SDS011;10249;48.900;9.090;2022-07-18T02:11:31;13.20;;;12.70;;
20179;SDS011;10249;48.900;9.090;2022-07-18T02:13:59;13.70;;;13.10;;
20179;SDS011;10249;48.900;9.090;2022-07-18T02:16:26;13.37;;;12.87;;
20179;SDS011;10249;48.900;9.090;2022-07-18T02:18:54;13.37;;;12.87;;
20179;SDS011;10249;48.900;9.090;2022-07-18T02:21:21;13.30;;;12.80;;
20179;SDS011;10249;48.900;9.090;2022-07-18T02:23:48;13.10;;;12.60;;
20179;SDS011;10249;48.900;9.090;2022-07-18T02:26:16;13.17;;;12.67;;
20179;SDS011;10249;48.900;9.090;2022-07-18T02:28:43;13.10;;;12.60;;
20179;SDS011;10249;48.900;9.090;2022-07-18T02:31:11;13.37;;;12.87;;
20179;SDS011;10249;48.900;9.090;2022-07-18T02:33:38;16.53;;;15.73;;
20179;SDS011;10249;48.900;9.090;2022-07-18T02:36:05;12.97;;;12.47;;
20179;SDS011;10249;48.900;9.090;2022-07-18T02:38:32;13.27;;;12.77;;
20179;SDS011;10249;48.900;9.090;2022-07-18T02:40:59;12.90;;;12.40;;
20179;SDS011;10249;48.900;9.090;2022-07-18T02:43:27;12.90;;;12.40;;
20179;SDS011;10249;48.900;9.090;2022-07-18T02:45:54;12.90;;;12.40;;
20179;SDS011;10249;48.900;9.090;2022-07-18T02:48:22;13.20;;;12.70;;
20179;SDS011;10249;48.900;9.090;2022-07-18T02:50:49;12.97;;;12.47;;
20179;SDS011;10249;48.900;9.090;2022-07-18T02:53:16;13.00;;;12.50;;
20179;SDS011;10249;48.900;9.090;2022-07-18T02:55:44;14.13;;;13.53;;
20179;SDS011;10249;48.900;9.090;2022-07-18T02:58:11;12.90;;;12.40;;
20179;SDS011;10249;48.900;9.090;2022-07-18T03:00:38;13.00;;;12.50;;
20179;SDS011;10249;48.900;9.090;2022-07-18T03:03:05;13.13;;;12.63;;
20179;SDS011;10249;48.900;9.090;2022-07-18T03:05:34;13.10;;;12.60;;
20179;SDS011;10249;48.900;9.090;2022-07-18T03:08:01;13.30;;;12.80;;
20179;SDS011;10249;48.900;9.090;2022-07-18T03:10:28;13.30;;;12.77;;
20179;SDS011;10249;48.900;9.090;2022-07-18T03:12:55;13.20;;;12.70;;
20179;SDS011;10249;48.900;9.090;2022-07-18T03:15:22;13.50;;;12.90;;
20179;SDS011;10249;48.900;9.090;2022-07-18T03:17:49;13.00;;;12.50;;
20179;SDS011;10249;48.900;9.090;2022-07-18T03:20:16;13.00;;;12.50;;
20179;SDS011;10249;48.900;9.090;2022-07-18T03:22:44;12.90;;;12.40;;
20179;SDS011;10249;48.900;9.090;2022-07-18T03:25:11;13.17;;;12.67;;
20179;SDS011;10249;48.900;9.090;2022-07-18T03:27:38;13.50;;;12.90;;
20179;SDS011;10249;48.900;9.090;2022-07-18T03:30:06;13.20;;;12.70;;
20179;SDS011;10249;48.900;9.090;2022-07-18T03:32:33;13.17;;;12.67;;
20179;SDS011;10249;48.900;9.090;2022-07-18T03:35:00;13.27;;;12.67;;
20179;SDS011;10249;48.900;9.090;2022-07-18T03:37:27;13.10;;;12.60;;
20179;SDS011;10249;48.900;9.090;2022-07-18T03:39:56;13.60;;;13.00;;
20179;SDS011;10249;48.900;9.090;2022-07-18T03:42:23;13.40;;;12.80;;
20179;SDS011;10249;48.900;9.090;2022-07-18T03:44:50;13.10;;;12.60;;
20179;SDS011;10249;48.900;9.090;2022-07-18T03:47:17;13.43;;;12.83;;
20179;SDS011;10249;48.900;9.090;2022-07-18T03:49:44;13.17;;;12.67;;
20179;SDS011;10249;48.900;9.090;2022-07-18T03:52:11;12.87;;;12.37;;
20179;SDS011;10249;48.900;9.090;2022-07-18T03:54:38;12.90;;;12.40;;
20179;SDS011;10249;48.900;9.090;2022-07-18T03:57:06;12.90;;;12.40;;
20179;SDS011;10249;48.900;9.090;2022-07-18T03:59:33;13.13;;;12.63;;
20179;SDS011;10249;48.900;9.090;2022-07-18T04:02:00;13.10;;;12.60;;
20179;SDS011;10249;48.900;9.090;2022-07-18T04:04:27;13.10;;;12.60;;
20179;SDS011;10249;48.900;9.090;2022-07-18T04:06:54;13.70;;;13.10;;
20179;SDS011;10249;48.900;9.090;2022-07-18T04:09:24;14.00;;;13.40;;
20179;SDS011;10249;48.900;9.090;2022-07-18T04:11:51;14.10;;;13.50;;
20179;SDS011;10249;48.900;9.090;2022-07-18T04:14:19;13.97;;;13.37;;
20179;SDS011;10249;48.900;9.090;2022-07-18T04:16:47;14.20;;;13.60;;
20179;SDS011;10249;48.900;9.090;2022-07-18T04:19:14;14.10;;;13.50;;
20179;SDS011;10249;48.900;9.090;2022-07-18T04:21:42;14.00;;;13.40;;
20179;SDS011;10249;48.900;9.090;2022-07-18T04:24:09;14.03;;;13.43;;
20179;SDS011;10249;48.900;9.090;2022-07-18T04:26:36;14.20;;;13.60;;
20179;SDS011;10249;48.900;9.090;2022-07-18T04:29:03;13.90;;;13.30;;
20179;SDS011;10249;48.900;9.090;2022-07-18T04:31:32;13.90;;;13.30;;
20179;SDS011;10249;48.900;9.090;2022-07-18T04:33:59;13.80;;;13.20;;
20179;SDS011;10249;48.900;9.090;2022-07-18T04:36:26;13.47;;;12.87;;
20179;SDS011;10249;48.900;9.090;2022-07-18T04:38:53;13.67;;;13.07;;
20179;SDS011;10249;48.900;9.090;2022-07-18T04:41:21;13.73;;;13.13;;
20179;SDS011;10249;48.900;9.090;2022-07-18T04:43:50;13.30;;;12.80;;
20179;SDS011;10249;48.900;9.090;2022-07-18T04:46:17;13.57;;;12.97;;
20179;SDS011;10249;48.900;9.090;2022-07-18T04:48:45;13.70;;;13.10;;
20179;SDS011;10249;48.900;9.090;2022-07-18T04:51:12;13.50;;;12.90;;
20179;SDS011;10249;48.900;9.090;2022-07-18T04:53:39;13.60;;;13.00;;
20179;SDS011;10249;48.900;9.090;2022-07-18T04:56:06;14.17;;;13.57;;
20179;SDS011;10249;48.900;9.090;2022-07-18T04:58:34;13.67;;;13.07;;
20179;SDS011;10249;48.900;9.090;2022-07-18T05:01:01;13.80;;;13.20;;
20179;SDS011;10249;48.900;9.090;2022-07-18T05:03:28;13.73;;;13.13;;
20179;SDS011;10249;48.900;9.090;2022-07-18T05:05:56;15.17;;;14.53;;
20179;SDS011;10249;48.900;9.090;2022-07-18T05:08:23;14.00;;;13.40;;
20179;SDS011;10249;48.900;9.090;2022-07-18T05:10:50;14.40;;;13.80;;
20179;SDS011;10249;48.900;9.090;2022-07-18T05:13:17;14.00;;;13.40;;
20179;SDS011;10249;48.900;9.090;2022-07-18T05:15:44;14.60;;;14.00;;
20179;SDS011;10249;48.900;9.090;2022-07-18T05:18:11;14.80;;;14.20;;
20179;SDS011;10249;48.900;9.090;2022-07-18T05:20:38;14.47;;;13.77;;
20179;SDS011;10249;48.900;9.090;2022-07-18T05:23:07;15.47;;;14.77;;
20179;SDS011;10249;48.900;9.090;2022-07-18T05:25:34;14.73;;;14.03;;
20179;SDS011;10249;48.900;9.090;2022-07-18T05:28:01;14.63;;;13.93;;
20179;SDS011;10249;48.900;9.090;2022-07-18T05:30:28;14.80;;;14.10;;
20179;SDS011;10249;48.900;9.090;2022-07-18T05:32:55;14.43;;;13.83;;
20179;SDS011;10249;48.900;9.090;2022-07-18T05:35:23;14.50;;;13.90;;
20179;SDS011;10249;48.900;9.090;2022-07-18T05:37:50;14.33;;;13.73;;
20179;SDS011;10249;48.900;9.090;2022-07-18T05:40:18;14.50;;;13.90;;
20179;SDS011;10249;48.900;9.090;2022-07-18T05:42:45;14.63;;;14.03;;
20179;SDS011;10249;48.900;9.090;2022-07-18T05:45:14;14.90;;;14.20;;
20179;SDS011;10249;48.900;9.090;2022-07-18T05:47:42;14.40;;;13.80;;
20179;SDS011;10249;48.900;9.090;2022-07-18T05:50:09;14.33;;;13.73;;
20179;SDS011;10249;48.900;9.090;2022-07-18T05:52:36;14.30;;;13.70;;
20179;SDS011;10249;48.900;9.090;2022-07-18T05:55:04;14.20;;;13.60;;
20179;SDS011;10249;48.900;9.090;2022-07-18T05:57:32;14.30;;;13.70;;
20179;SDS011;10249;48.900;9.090;2022-07-18T05:59:59;14.17;;;13.57;;
20179;SDS011;10249;48.900;9.090;2022-07-18T06:02:27;14.13;;;13.53;;
20179;SDS011;10249;48.900;9.090;2022-07-18T06:04:54;14.20;;;13.60;;
20179;SDS011;10249;48.900;9.090;2022-07-18T06:07:21;14.00;;;13.40;;
20179;SDS011;10249;48.900;9.090;2022-07-18T06:09:48;14.17;;;13.57;;
20179;SDS011;10249;48.900;9.090;2022-07-18T06:12:15;14.00;;;13.40;;
20179;SDS011;10249;48.900;9.090;2022-07-18T06:14:43;13.77;;;13.17;;
20179;SDS011;10249;48.900;9.090;2022-07-18T06:17:11;14.07;;;13.47;;
20179;SDS011;10249;48.900;9.090;2022-07-18T06:19:38;13.80;;;13.20;;
20179;SDS011;10249;48.900;9.090;2022-07-18T06:22:06;14.00;;;13.40;;
20179;SDS011;10249;48.900;9.090;2022-07-18T06:24:33;13.83;;;13.23;;
20179;SDS011;10249;48.900;9.090;2022-07-18T06:27:00;14.10;;;13.50;;
20179;SDS011;10249;48.900;9.090;2022-07-18T06:29:28;14.17;;;13.57;;
20179;SDS011;10249;48.900;9.090;2022-07-18T06:31:56;14.30;;;13.70;;
20179;SDS011;10249;48.900;9.090;2022-07-18T06:34:23;14.33;;;13.73;;
20179;SDS011;10249;48.900;9.090;2022-07-18T06:36:50;14.23;;;13.63;;
20179;SDS011;10249;48.900;9.090;2022-07-18T06:39:17;14.20;;;13.60;;
20179;SDS011;10249;48.900;9.090;2022-07-18T06:41:44;14.20;;;13.60;;
20179;SDS011;10249;48.900;9.090;2022-07-18T06:44:11;14.50;;;13.90;;
20179;SDS011;10249;48.900;9.090;2022-07-18T06:46:38;14.30;;;13.70;;
20179;SDS011;10249;48.900;9.090;2022-07-18T06:49:07;14.33;;;13.73;;
20179;SDS011;10249;48.900;9.090;2022-07-18T06:51:34;14.33;;;13.73;;
20179;SDS011;10249;48.900;9.090;2022-07-18T06:54:01;14.30;;;13.70;;
20179;SDS011;10249;48.900;9.090;2022-07-18T06:56:28;14.23;;;13.63;;
20179;SDS011;10249;48.900;9.090;2022-07-18T06:58:55;14.47;;;13.87;;
20179;SDS011;10249;48.900;9.090;2022-07-18T07:01:22;14.47;;;13.87;;
20179;SDS011;10249;48.900;9.090;2022-07-18T07:03:49;14.57;;;13.97;;
20179;SDS011;10249;48.900;9.090;2022-07-18T07:06:18;14.60;;;14.00;;
20179;SDS011;10249;48.900;9.090;2022-07-18T07:08:45;14.50;;;13.90;;
20179;SDS011;10249;48.900;9.090;2022-07-18T07:11:12;15.00;;;14.30;;
20179;SDS011;10249;48.900;9.090;2022-07-18T07:13:39;14.80;;;14.10;;
20179;SDS011;10249;48.900;9.090;2022-07-18T07:16:06;14.80;;;14.20;;
20179;SDS011;10249;48.900;9.090;2022-07-18T07:18:33;14.57;;;13.97;;
20179;SDS011;10249;48.900;9.090;2022-07-18T07:21:01;14.70;;;14.10;;
20179;SDS011;10249;48.900;9.090;2022-07-18T07:23:30;14.73;;;14.13;;
20179;SDS011;10249;48.900;9.090;2022-07-18T07:25:57;15.03;;;14.33;;
20179;SDS011;10249;48.900;9.090;2022-07-18T07:28:24;15.07;;;14.37;;
20179;SDS011;10249;48.900;9.090;2022-07-18T07:30:51;14.70;;;14.07;;
20179;SDS011;10249;48.900;9.090;2022-07-18T07:33:18;14.40;;;13.80;;
20179;SDS011;10249;48.900;9.090;2022-07-18T07:35:45;14.67;;;13.97;;
20179;SDS011;10249;48.900;9.090;2022-07-18T07:38:12;14.73;;;14.03;;
20179;SDS011;10249;48.900;9.090;2022-07-18T07:40:45;14.80;;;14.10;;
20179;SDS011;10249;48.900;9.090;2022-07-18T07:43:13;14.47;;;13.77;;
20179;SDS011;10249;48.900;9.090;2022-07-18T07:45:41;14.80;;;14.10;;
20179;SDS011;10249;48.900;9.090;2022-07-18T07:48:08;14.97;;;14.27;;
20179;SDS011;10249;48.900;9.090;2022-07-18T07:50:35;15.40;;;14.70;;
20179;SDS011;10249;48.900;9.090;2022-07-18T07:53:02;15.53;;;14.83;;
20179;SDS011;10249;48.900;9.090;2022-07-18T07:55:29;15.33;;;14.63;;
20179;SDS011;10249;48.900;9.090;2022-07-18T07:57:57;15.53;;;14.83;;
20179;SDS011;10249;48.900;9.090;2022-07-18T08:00:24;15.43;;;14.73;;
20179;SDS011;10249;48.900;9.090;2022-07-18T08:02:53;15.57;;;14.83;;
20179;SDS011;10249;48.900;9.090;2022-07-18T08:05:20;15.60;;;14.90;;
20179;SDS011;10249;48.900;9.090;2022-07-18T08:07:47;15.43;;;14.73;;
20179;SDS011;10249;48.900;9.090;2022-07-18T08:10:14;16.00;;;15.20;;
20179;SDS011;10249;48.900;9.090;2022-07-18T08:12:41;15.67;;;14.93;;
20179;SDS011;10249;48.900;9.090;2022-07-18T08:15:10;15.50;;;14.80;;
20179;SDS011;10249;48.900;9.090;2022-07-18T08:17:38;16.00;;;15.20;;
20179;SDS011;10249;48.900;9.090;2022-07-18T08:20:05;16.10;;;15.30;;
20179;SDS011;10249;48.900;9.090;2022-07-18T08:22:33;16.03;;;15.23;;
20179;SDS011;10249;48.900;9.090;2022-07-18T08:25:00;15.63;;;14.83;;
20179;SDS011;10249;48.900;9.090;2022-07-18T08:27:27;15.70;;;14.97;;
20179;SDS011;10249;48.900;9.090;2022-07-18T08:29:54;15.97;;;15.17;;
20179;SDS011;10249;48.900;9.090;2022-07-18T08:32:23;15.73;;;15.03;;
20179;SDS011;10249;48.900;9.090;2022-07-18T08:34:50;15.60;;;14.80;;
20179;SDS011;10249;48.900;9.090;2022-07-18T08:37:18;15.60;;;14.90;;
20179;SDS011;10249;48.900;9.090;2022-07-18T08:39:45;16.00;;;15.20;;
20179;SDS011;10249;48.900;9.090;2022-07-18T08:42:12;15.95;;;15.18;;
20179;SDS011;10249;48.900;9.090;2022-07-18T08:44:40;15.85;;;15.07;;
20179;SDS011;10249;48.900;9.090;2022-07-18T08:47:07;16.08;;;15.27;;
20179;SDS011;10249;48.900;9.090;2022-07-18T08:49:36;16.17;;;15.38;;
20179;SDS011;10249;48.900;9.090;2022-07-18T08:52:04;16.48;;;15.68;;
20179;SDS011;10249;48.900;9.090;2022-07-18T08:54:31;15.40;;;14.70;;
20179;SDS011;10249;48.900;9.090;2022-07-18T08:56:58;15.32;;;14.63;;
20179;SDS011;10249;48.900;9.090;2022-07-18T08:59:26;15.73;;;15.00;;
20179;SDS011;10249;48.900;9.090;2022-07-18T09:01:53;15.65;;;14.88;;
20179;SDS011;10249;48.900;9.090;2022-07-18T09:04:32;15.40;;;14.70;;
20179;SDS011;10249;48.900;9.090;2022-07-18T09:07:01;15.70;;;14.90;;
20179;SDS011;10249;48.900;9.090;2022-07-18T09:09:29;15.75;;;14.95;;
20179;SDS011;10249;48.900;9.090;2022-07-18T09:11:58;15.77;;;14.98;;
20179;SDS011;10249;48.900;9.090;2022-07-18T09:14:29;15.32;;;14.63;;
20179;SDS011;10249;48.900;9.090;2022-07-18T09:17:00;15.40;;;14.70;;
20179;SDS011;10249;48.900;9.090;2022-07-18T09:19:28;15.93;;;15.13;;
20179;SDS011;10249;48.900;9.090;2022-07-18T09:21:58;16.02;;;15.25;;
20179;SDS011;10249;48.900;9.090;2022-07-18T09:24:49;17.25;;;16.02;;
20179;SDS011;10249;48.900;9.090;2022-07-18T09:27:23;15.80;;;15.00;;
20179;SDS011;10249;48.900;9.090;2022-07-18T09:29:59;16.08;;;15.38;;
20179;SDS011;10249;48.900;9.090;2022-07-18T09:32:33;15.35;;;14.65;;
20179;SDS011;10249;48.900;9.090;2022-07-18T09:35:03;15.25;;;14.55;;
20179;SDS011;10249;48.900;9.090;2022-07-18T09:37:30;15.38;;;14.68;;
20179;SDS011;10249;48.900;9.090;2022-07-18T09:40:02;15.32;;;14.63;;
20179;SDS011;10249;48.900;9.090;2022-07-18T09:42:39;15.85;;;15.05;;
20179;SDS011;10249;48.900;9.090;2022-07-18T09:45:07;16.17;;;15.38;;
20179;SDS011;10249;48.900;9.090;2022-07-18T09:47:37;16.55;;;15.82;;
20179;SDS011;10249;48.900;9.090;2022-07-18T09:50:18;16.48;;;15.70;;
20179;SDS011;10249;48.900;9.090;2022-07-18T09:52:54;15.60;;;14.90;;
20179;SDS011;10249;48.900;9.090;2022-07-18T09:55:23;15.30;;;14.60;;
20179;SDS011;10249;48.900;9.090;2022-07-18T09:57:56;16.50;;;15.60;;
20179;SDS011;10249;48.900;9.090;2022-07-18T10:00:24;16.02;;;15.23;;
20179;SDS011;10249;48.900;9.090;2022-07-18T10:02:51;15.95;;;15.15;;
20179;SDS011;10249;48.900;9.090;2022-07-18T10:05:18;15.48;;;14.75;;
20179;SDS011;10249;48.900;9.090;2022-07-18T10:07:45;16.70;;;15.80;;
20179;SDS011;10249;48.900;9.090;2022-07-18T10:10:13;15.23;;;14.52;;
20179;SDS011;10249;48.900;9.090;2022-07-18T10:12:42;15.35;;;14.65;;
20179;SDS011;10249;48.900;9.090;2022-07-18T10:15:09;15.68;;;14.88;;
20179;SDS011;10249;48.900;9.090;2022-07-18T10:17:36;15.70;;;14.90;;
20179;SDS011;10249;48.900;9.090;2022-07-18T10:20:03;15.77;;;14.98;;
20179;SDS011;10249;48.900;9.090;2022-07-18T10:22:33;15.85;;;15.05;;
20179;SDS011;10249;48.900;9.090;2022-07-18T10:25:03;16.00;;;15.20;;
20179;SDS011;10249;48.900;9.090;2022-07-18T10:27:46;15.88;;;15.18;;
20179;SDS011;10249;48.900;9.090;2022-07-18T10:30:14;15.88;;;15.07;;
20179;SDS011;10249;48.900;9.090;2022-07-18T10:32:42;15.75;;;14.95;;
20179;SDS011;10249;48.900;9.090;2022-07-18T10:35:09;15.65;;;14.85;;
20179;SDS011;10249;48.900;9.090;2022-07-18T10:37:37;15.73;;;14.93;;
20179;SDS011;10249;48.900;9.090;2022-07-18T10:40:23;15.75;;;14.95;;
20179;SDS011;10249;48.900;9.090;2022-07-18T10:45:45;16.05;;;15.35;;
20179;SDS011;10249;48.900;9.090;2022-07-18T10:51:00;16.27;;;15.50;;
20179;SDS011;10249;48.900;9.090;2022-07-18T10:56:09;15.55;;;14.85;;
20179;SDS011;10249;48.900;9.090;2022-07-18T10:58:38;15.73;;;14.98;;
20179;SDS011;10249;48.900;9.090;2022-07-18T11:01:08;15.55;;;14.82;;
20179;SDS011;10249;48.900;9.090;2022-07-18T11:03:37;15.85;;;15.05;;
20179;SDS011;10249;48.900;9.090;2022-07-18T11:06:04;15.90;;;15.10;;
20179;SDS011;10249;48.900;9.090;2022-07-18T11:08:32;16.67;;;15.75;;
20179;SDS011;10249;48.900;9.090;2022-07-18T11:11:09;15.95;;;15.15;;
20179;SDS011;10249;48.900;9.090;2022-07-18T11:13:38;15.90;;;15.10;;
20179;SDS011;10249;48.900;9.090;2022-07-18T11:16:09;15.65;;;14.95;;
20179;SDS011;10249;48.900;9.090;2022-07-18T11:21:22;15.73;;;14.93;;
20179;SDS011;10249;48.900;9.090;2022-07-18T11:23:50;15.40;;;14.70;;
20179;SDS011;10249;48.900;9.090;2022-07-18T11:26:18;15.80;;;15.00;;
20179;SDS011;10249;48.900;9.090;2022-07-18T11:28:46;16.88;;;15.98;;
20179;SDS011;10249;48.900;9.090;2022-07-18T11:31:15;15.60;;;14.80;;
20179;SDS011;10249;48.900;9.090;2022-07-18T11:33:43;15.45;;;14.75;;
20179;SDS011;10249;48.900;9.090;2022-07-18T11:36:11;15.63;;;14.82;;
20179;SDS011;10249;48.900;9.090;2022-07-18T11:38:39;15.73;;;14.93;;
20179;SDS011;10249;48.900;9.090;2022-07-18T11:41:12;15.82;;;15.02;;
20179;SDS011;10249;48.900;9.090;2022-07-18T11:43:39;15.90;;;15.10;;
20179;SDS011;10249;48.900;9.090;2022-07-18T11:46:07;15.98;;;15.18;;
20179;SDS011;10249;48.900;9.090;2022-07-18T11:48:36;16.77;;;15.88;;
20179;SDS011;10249;48.900;9.090;2022-07-18T11:51:07;17.20;;;16.17;;
20179;SDS011;10249;48.900;9.090;2022-07-18T11:53:35;16.42;;;15.63;;
20179;SDS011;10249;48.900;9.090;2022-07-18T11:56:03;16.17;;;15.38;;
20179;SDS011;10249;48.900;9.090;2022-07-18T11:58:34;15.70;;;15.00;;
20179;SDS011;10249;48.900;9.090;2022-07-18T12:01:02;15.20;;;14.50;;
20179;SDS011;10249;48.900;9.090;2022-07-18T12:03:29;15.52;;;14.77;;
20179;SDS011;10249;48.900;9.090;2022-07-18T12:05:58;15.63;;;14.82;;
20179;SDS011;10249;48.900;9.090;2022-07-18T12:08:28;15.90;;;15.10;;
20179;SDS011;10249;48.900;9.090;2022-07-18T12:11:03;15.60;;;14.80;;
20179;SDS011;10249;48.900;9.090;2022-07-18T12:13:44;15.60;;;14.80;;
20179;SDS011;10249;48.900;9.090;2022-07-18T12:16:21;15.80;;;15.00;;
20179;SDS011;10249;48.900;9.090;2022-07-18T12:18:49;15.65;;;14.85;;
20179;SDS011;10249;48.900;9.090;2022-07-18T12:21:18;15.32;;;14.63;;
20179;SDS011;10249;48.900;9.090;2022-07-18T12:23:46;15.30;;;14.60;;
20179;SDS011;10249;48.900;9.090;2022-07-18T12:26:25;15.48;;;14.77;;
20179;SDS011;10249;48.900;9.090;2022-07-18T12:29:02;16.00;;;15.20;;
20179;SDS011;10249;48.900;9.090;2022-07-18T12:31:36;15.45;;;14.65;;
20179;SDS011;10249;48.900;9.090;2022-07-18T12:34:07;15.43;;;14.68;;
20179;SDS011;10249;48.900;9.090;2022-07-18T12:36:49;15.30;;;14.60;;
20179;SDS011;10249;48.900;9.090;2022-07-18T12:39:24;15.45;;;14.68;;
20179;SDS011;10249;48.900;9.090;2022-07-18T12:41:51;15.40;;;14.60;;
20179;SDS011;10249;48.900;9.090;2022-07-18T12:44:18;16.10;;;15.30;;
20179;SDS011;10249;48.900;9.090;2022-07-18T12:46:45;15.93;;;15.13;;
20179;SDS011;10249;48.900;9.090;2022-07-18T12:49:12;15.80;;;15.00;;
20179;SDS011;10249;48.900;9.090;2022-07-18T12:51:41;15.85;;;15.05;;
20179;SDS011;10249;48.900;9.090;2022-07-18T12:54:08;15.63;;;14.82;;
20179;SDS011;10249;48.900;9.090;2022-07-18T12:56:35;15.95;;;15.15;;
20179;SDS011;10249;48.900;9.090;2022-07-18T12:59:02;15.68;;;14.88;;
20179;SDS011;10249;48.900;9.090;2022-07-18T13:01:30;15.85;;;15.05;;
20179;SDS011;10249;48.900;9.090;2022-07-18T13:03:57;15.80;;;15.00;;
20179;SDS011;10249;48.900;9.090;2022-07-18T13:06:24;15.90;;;15.10;;
20179;SDS011;10249;48.900;9.090;2022-07-18T13:08:53;16.02;;;15.23;;
20179;SDS011;10249;48.900;9.090;2022-07-18T13:11:20;15.90;;;15.10;;
20179;SDS011;10249;48.900;9.090;2022-07-18T13:13:47;15.88;;;15.07;;
20179;SDS011;10249;48.900;9.090;2022-07-18T13:16:14;16.10;;;15.30;;
20179;SDS011;10249;48.900;9.090;2022-07-18T13:18:41;15.88;;;15.07;;
20179;SDS011;10249;48.900;9.090;2022-07-18T13:21:08;15.93;;;15.13;;
20179;SDS011;10249;48.900;9.090;2022-07-18T13:23:36;16.00;;;15.20;;
20179;SDS011;10249;48.900;9.090;2022-07-18T13:26:04;15.55;;;14.75;;
20179;SDS011;10249;48.900;9.090;2022-07-18T13:28:31;16.13;;;15.32;;
20179;SDS011;10249;48.900;9.090;2022-07-18T13:30:58;15.93;;;15.13;;
20179;SDS011;10249;48.900;9.090;2022-07-18T13:33:26;17.08;;;16.17;;
20179;SDS011;10249;48.900;9.090;2022-07-18T13:35:53;16.10;;;15.30;;
20179;SDS011;10249;48.900;9.090;2022-07-18T13:38:20;15.85;;;15.05;;
20179;SDS011;10249;48.900;9.090;2022-07-18T13:40:47;15.98;;;15.18;;
20179;SDS011;10249;48.900;9.090;2022-07-18T13:43:18;16.00;;;15.20;;
20179;SDS011;10249;48.900;9.090;2022-07-18T13:45:45;15.98;;;15.18;;
20179;SDS011;10249;48.900;9.090;2022-07-18T13:48:12;16.17;;;15.38;;
20179;SDS011;10249;48.900;9.090;2022-07-18T13:50:39;16.08;;;15.27;;
20179;SDS011;10249;48.900;9.090;2022-07-18T13:53:06;15.88;;;15.07;;
20179;SDS011;10249;48.900;9.090;2022-07-18T13:55:33;16.15;;;15.35;;
20179;SDS011;10249;48.900;9.090;2022-07-18T13:58:00;15.95;;;15.15;;
20179;SDS011;10249;48.900;9.090;2022-07-18T14:00:29;16.20;;;15.40;;
20179;SDS011;10249;48.900;9.090;2022-07-18T14:02:56;15.50;;;14.70;;
20179;SDS011;10249;48.900;9.090;2022-07-18T14:05:23;15.98;;;15.18;;
20179;SDS011;10249;48.900;9.090;2022-07-18T14:07:51;15.73;;;14.93;;
20179;SDS011;10249;48.900;9.090;2022-07-18T14:10:18;15.65;;;14.85;;
20179;SDS011;10249;48.900;9.090;2022-07-18T14:12:45;15.55;;;14.85;;
20179;SDS011;10249;48.900;9.090;2022-07-18T14:15:13;15.27;;;14.57;;
20179;SDS011;10249;48.900;9.090;2022-07-18T14:17:41;16.02;;;15.23;;
20179;SDS011;10249;48.900;9.090;2022-07-18T14:20:08;15.85;;;15.05;;
20179;SDS011;10249;48.900;9.090;2022-07-18T14:22:36;15.95;;;15.15;;
20179;SDS011;10249;48.900;9.090;2022-07-18T14:25:04;17.10;;;16.20;;
20179;SDS011;10249;48.900;9.090;2022-07-18T14:27:31;16.75;;;15.90;;
20179;SDS011;10249;48.900;9.090;2022-07-18T14:29:58;16.02;;;15.23;;
20179;SDS011;10249;48.900;9.090;2022-07-18T14:32:25;16.30;;;15.50;;
20179;SDS011;10249;48.900;9.090;2022-07-18T14:34:54;16.25;;;15.45;;
20179;SDS011;10249;48.900;9.090;2022-07-18T14:37:21;16.05;;;15.25;;